createdAt,value
2018-05-27T00:00:36.831Z,989.67
2018-05-27T00:01:37.053Z,989.67
2018-05-27T00:02:37.260Z,989.64
2018-05-27T00:03:37.448Z,989.68
2018-05-27T00:04:37.658Z,989.66
2018-05-27T00:05:37.856Z,989.67
2018-05-27T00:06:38.068Z,989.61
2018-05-27T00:07:38.282Z,989.68
2018-05-27T00:08:38.498Z,989.66
2018-05-27T00:09:38.709Z,989.68
2018-05-27T00:10:38.996Z,989.67
2018-05-27T00:11:39.057Z,989.66
2018-05-27T00:12:39.258Z,989.64
2018-05-27T00:13:39.453Z,989.70
2018-05-27T00:14:39.657Z,989.64
2018-05-27T00:15:39.842Z,989.66
2018-05-27T00:16:40.058Z,989.64
2018-05-27T00:17:40.258Z,989.61
2018-05-27T00:18:40.468Z,989.62
2018-05-27T00:19:40.661Z,989.56
2018-05-27T00:20:40.866Z,989.56
2018-05-27T00:21:41.071Z,989.52
2018-05-27T00:22:41.271Z,989.54
2018-05-27T00:23:41.483Z,989.53
2018-05-27T00:24:41.654Z,989.50
2018-05-27T00:25:41.864Z,989.48
2018-05-27T00:26:42.060Z,989.44
2018-05-27T00:27:42.255Z,989.44
2018-05-27T00:28:42.460Z,989.44
2018-05-27T00:29:42.648Z,989.43
2018-05-27T00:30:42.864Z,989.40
2018-05-27T00:31:43.051Z,989.43
2018-05-27T00:32:43.263Z,989.42
2018-05-27T00:33:43.474Z,989.40
2018-05-27T00:34:43.680Z,989.37
2018-05-27T00:35:43.881Z,989.36
2018-05-27T00:36:44.084Z,989.33
2018-05-27T00:37:44.272Z,989.32
2018-05-27T00:38:44.472Z,989.32
2018-05-27T00:39:44.684Z,989.32
2018-05-27T00:40:44.899Z,989.28
2018-05-27T00:41:45.084Z,989.30
2018-05-27T00:42:45.280Z,989.29
2018-05-27T00:43:45.480Z,989.28
2018-05-27T00:44:45.701Z,989.29
2018-05-27T00:45:45.891Z,989.25
2018-05-27T00:46:46.097Z,989.27
2018-05-27T00:47:46.309Z,989.24
2018-05-27T00:48:46.499Z,989.25
2018-05-27T00:49:46.705Z,989.26
2018-05-27T00:50:46.997Z,989.26
2018-05-27T00:53:19.019Z,989.24
2018-05-27T00:54:19.189Z,989.26
2018-05-27T00:55:19.411Z,989.25
2018-05-27T00:56:19.597Z,989.22
2018-05-27T00:57:19.807Z,989.23
2018-05-27T00:58:20.020Z,989.16
2018-05-27T00:59:20.224Z,989.23
2018-05-27T01:00:20.409Z,989.19
2018-05-27T01:02:52.682Z,989.19
2018-05-27T01:03:52.860Z,989.18
2018-05-27T01:04:53.066Z,989.16
2018-05-27T01:05:53.283Z,989.15
2018-05-27T01:06:53.574Z,989.17
2018-05-27T01:07:53.639Z,989.19
2018-05-27T01:08:53.820Z,989.17
2018-05-27T01:09:54.009Z,989.14
2018-05-27T01:10:54.213Z,989.14
2018-05-27T01:11:54.400Z,989.07
2018-05-27T01:12:54.616Z,989.09
2018-05-27T01:13:54.893Z,989.07
2018-05-27T01:14:54.958Z,989.09
2018-05-27T01:15:55.158Z,989.03
2018-05-27T01:16:55.400Z,989.01
2018-05-27T01:17:55.610Z,989.03
2018-05-27T01:18:55.820Z,988.99
2018-05-27T01:19:56.016Z,989.01
2018-05-27T01:20:56.202Z,988.96
2018-05-27T01:21:56.394Z,989.00
2018-05-27T01:22:56.575Z,988.98
2018-05-27T01:23:56.776Z,988.93
2018-05-27T01:24:56.968Z,988.90
2018-05-27T01:25:57.181Z,988.90
2018-05-27T01:26:57.400Z,988.88
2018-05-27T01:27:57.610Z,988.91
2018-05-27T01:28:57.810Z,988.93
2018-05-27T01:29:58.018Z,988.91
2018-05-27T01:30:58.215Z,988.94
2018-05-27T01:31:58.427Z,988.94
2018-05-27T01:32:58.627Z,988.96
2018-05-27T01:33:58.841Z,988.93
2018-05-27T01:34:59.055Z,988.95
2018-05-27T01:37:31.196Z,988.93
2018-05-27T01:38:31.373Z,988.91
2018-05-27T01:39:31.580Z,988.95
2018-05-27T01:40:31.793Z,988.92
2018-05-27T01:41:31.974Z,988.92
2018-05-27T01:42:32.171Z,988.91
2018-05-27T01:45:04.317Z,988.91
2018-05-27T01:46:04.495Z,988.91
2018-05-27T01:47:04.703Z,988.86
2018-05-27T01:48:04.895Z,988.87
2018-05-27T01:49:05.102Z,988.89
2018-05-27T01:50:05.298Z,988.84
2018-05-27T01:51:05.522Z,988.88
2018-05-27T01:52:05.720Z,988.88
2018-05-27T01:53:05.933Z,988.88
2018-05-27T01:54:06.144Z,988.87
2018-05-27T01:55:06.313Z,988.84
2018-05-27T01:56:06.502Z,988.86
2018-05-27T01:57:06.716Z,988.86
2018-05-27T01:58:06.922Z,988.88
2018-05-27T01:59:07.121Z,988.87
2018-05-27T02:00:07.327Z,988.82
2018-05-27T02:01:07.513Z,988.82
2018-05-27T02:02:07.726Z,988.86
2018-05-27T02:03:07.910Z,988.84
2018-05-27T02:04:08.124Z,988.84
2018-05-27T02:05:08.321Z,988.85
2018-05-27T02:06:08.536Z,988.85
2018-05-27T02:07:08.723Z,988.85
2018-05-27T02:08:08.945Z,988.82
2018-05-27T02:09:09.151Z,988.79
2018-05-27T02:10:09.360Z,988.75
2018-05-27T02:11:09.571Z,988.73
2018-05-27T02:12:09.777Z,988.70
2018-05-27T02:13:09.964Z,988.69
2018-05-27T02:14:10.160Z,988.64
2018-05-27T02:15:10.356Z,988.65
2018-05-27T02:16:10.562Z,988.64
2018-05-27T02:17:10.875Z,988.60
2018-05-27T02:18:10.946Z,988.59
2018-05-27T02:19:11.143Z,988.57
2018-05-27T02:20:11.331Z,988.56
2018-05-27T02:21:11.533Z,988.56
2018-05-27T02:22:11.739Z,988.53
2018-05-27T02:23:11.931Z,988.54
2018-05-27T02:24:12.133Z,988.52
2018-05-27T02:25:12.348Z,988.50
2018-05-27T02:26:12.539Z,988.46
2018-05-27T02:27:12.745Z,988.46
2018-05-27T02:28:12.926Z,988.46
2018-05-27T02:29:13.134Z,988.49
2018-05-27T02:30:13.322Z,988.48
2018-05-27T02:31:13.581Z,988.45
2018-05-27T02:32:13.786Z,988.46
2018-05-27T02:33:13.982Z,988.44
2018-05-27T02:34:14.173Z,988.43
2018-05-27T02:35:14.386Z,988.43
2018-05-27T02:36:14.580Z,988.40
2018-05-27T02:37:14.767Z,988.43
2018-05-27T02:38:14.952Z,988.43
2018-05-27T02:39:15.151Z,988.37
2018-05-27T02:40:15.404Z,988.42
2018-05-27T02:41:15.552Z,988.39
2018-05-27T02:42:15.746Z,988.37
2018-05-27T02:43:15.954Z,988.37
2018-05-27T02:44:16.167Z,988.38
2018-05-27T02:46:48.307Z,988.35
2018-05-27T02:47:48.481Z,988.31
2018-05-27T02:48:48.682Z,988.31
2018-05-27T02:49:48.873Z,988.32
2018-05-27T02:50:49.073Z,988.28
2018-05-27T02:51:49.291Z,988.31
2018-05-27T02:52:49.475Z,988.29
2018-05-27T02:53:49.682Z,988.27
2018-05-27T02:54:49.864Z,988.27
2018-05-27T02:55:50.062Z,988.27
2018-05-27T02:56:50.262Z,988.28
2018-05-27T02:57:50.452Z,988.27
2018-05-27T02:58:50.657Z,988.32
2018-05-27T02:59:50.848Z,988.33
2018-05-27T03:00:51.053Z,988.30
2018-05-27T03:03:23.187Z,988.27
2018-05-27T03:04:23.360Z,988.27
2018-05-27T03:05:23.625Z,988.25
2018-05-27T03:06:23.705Z,988.24
2018-05-27T03:07:23.904Z,988.24
2018-05-27T03:08:24.127Z,988.30
2018-05-27T03:09:24.310Z,988.29
2018-05-27T03:10:24.519Z,988.29
2018-05-27T03:11:24.703Z,988.30
2018-05-27T03:12:25.006Z,988.29
2018-05-27T03:13:25.150Z,988.25
2018-05-27T03:14:25.344Z,988.29
2018-05-27T03:15:25.533Z,988.31
2018-05-27T03:16:25.732Z,988.31
2018-05-27T03:17:25.922Z,988.33
2018-05-27T03:18:26.133Z,988.31
2018-05-27T03:19:26.323Z,988.32
2018-05-27T03:20:26.509Z,988.38
2018-05-27T03:21:26.707Z,988.32
2018-05-27T03:22:26.885Z,988.34
2018-05-27T03:23:27.082Z,988.34
2018-05-27T03:24:27.295Z,988.36
2018-05-27T03:25:27.494Z,988.32
2018-05-27T03:26:27.704Z,988.32
2018-05-27T03:27:27.887Z,988.33
2018-05-27T03:28:28.085Z,988.33
2018-05-27T03:31:00.223Z,988.34
2018-05-27T03:32:00.408Z,988.32
2018-05-27T03:33:00.584Z,988.34
2018-05-27T03:34:00.792Z,988.33
2018-05-27T03:35:00.988Z,988.32
2018-05-27T03:36:01.250Z,988.32
2018-05-27T03:37:01.337Z,988.36
2018-05-27T03:38:01.531Z,988.30
2018-05-27T03:39:01.732Z,988.32
2018-05-27T03:40:01.944Z,988.32
2018-05-27T03:41:02.139Z,988.33
2018-05-27T03:42:02.355Z,988.37
2018-05-27T03:43:02.544Z,988.35
2018-05-27T03:44:02.741Z,988.38
2018-05-27T03:45:02.938Z,988.33
2018-05-27T03:46:03.109Z,988.34
2018-05-27T03:47:03.303Z,988.36
2018-05-27T03:48:03.511Z,988.37
2018-05-27T03:49:03.711Z,988.37
2018-05-27T03:50:03.911Z,988.35
2018-05-27T03:51:04.107Z,988.39
2018-05-27T03:52:04.296Z,988.36
2018-05-27T03:53:04.484Z,988.41
2018-05-27T03:54:04.672Z,988.38
2018-05-27T03:55:04.861Z,988.41
2018-05-27T03:56:05.080Z,988.43
2018-05-27T03:57:05.278Z,988.43
2018-05-27T03:58:05.488Z,988.47
2018-05-27T04:00:37.872Z,988.50
2018-05-27T04:01:37.799Z,988.51
2018-05-27T04:02:37.984Z,988.54
2018-05-27T04:03:38.187Z,988.51
2018-05-27T04:04:38.385Z,988.49
2018-05-27T04:05:38.600Z,988.50
2018-05-27T04:06:38.790Z,988.51
2018-05-27T04:07:38.976Z,988.48
2018-05-27T04:08:39.183Z,988.48
2018-05-27T04:09:39.392Z,988.50
2018-05-27T04:10:39.596Z,988.49
2018-05-27T04:11:39.786Z,988.52
2018-05-27T04:12:39.968Z,988.53
2018-05-27T04:13:40.154Z,988.56
2018-05-27T04:16:11.978Z,988.56
2018-05-27T04:17:12.165Z,988.62
2018-05-27T04:18:12.343Z,988.70
2018-05-27T04:19:12.533Z,988.69
2018-05-27T04:20:12.743Z,988.71
2018-05-27T04:21:12.938Z,988.72
2018-05-27T04:22:13.125Z,988.72
2018-05-27T04:23:13.326Z,988.73
2018-05-27T04:24:13.527Z,988.70
2018-05-27T04:25:13.717Z,988.72
2018-05-27T04:26:13.904Z,988.75
2018-05-27T04:27:14.097Z,988.74
2018-05-27T04:28:14.297Z,988.77
2018-05-27T04:29:14.489Z,988.79
2018-05-27T04:30:14.696Z,988.78
2018-05-27T04:31:14.911Z,988.79
2018-05-27T04:32:15.122Z,988.80
2018-05-27T04:33:15.326Z,988.83
2018-05-27T04:34:15.519Z,988.80
2018-05-27T04:35:15.726Z,988.82
2018-05-27T04:36:15.907Z,988.82
2018-05-27T04:37:16.113Z,988.77
2018-05-27T04:38:16.307Z,988.84
2018-05-27T04:39:16.512Z,988.84
2018-05-27T04:40:16.724Z,988.85
2018-05-27T04:41:16.929Z,988.88
2018-05-27T04:42:17.143Z,988.90
2018-05-27T04:43:17.352Z,988.91
2018-05-27T04:45:49.486Z,989.02
2018-05-27T04:46:49.669Z,989.10
2018-05-27T04:47:49.853Z,989.23
2018-05-27T04:48:50.053Z,989.36
2018-05-27T04:49:50.267Z,989.62
2018-05-27T04:50:50.474Z,989.89
2018-05-27T04:51:50.664Z,990.26
2018-05-27T04:52:50.871Z,990.57
2018-05-27T04:53:51.099Z,991.05
2018-05-27T04:54:51.305Z,991.19
2018-05-27T04:55:51.521Z,991.74
2018-05-27T04:56:51.732Z,991.92
2018-05-27T04:57:51.926Z,991.01
2018-05-27T04:58:52.116Z,990.40
2018-05-27T04:59:52.307Z,990.12
2018-05-27T05:00:52.518Z,989.90
2018-05-27T05:01:52.708Z,989.96
2018-05-27T05:02:52.912Z,989.85
2018-05-27T05:03:53.112Z,989.80
2018-05-27T05:04:53.340Z,989.71
2018-05-27T05:05:53.551Z,989.65
2018-05-27T05:06:53.745Z,989.68
2018-05-27T05:07:53.962Z,989.67
2018-05-27T05:08:54.174Z,989.62
2018-05-27T05:09:54.383Z,989.58
2018-05-27T05:10:54.585Z,989.56
2018-05-27T05:11:54.796Z,989.59
2018-05-27T05:12:55.070Z,989.59
2018-05-27T05:13:55.166Z,989.52
2018-05-27T05:14:55.406Z,989.55
2018-05-27T05:15:55.573Z,989.55
2018-05-27T05:16:55.789Z,989.53
2018-05-27T05:17:55.983Z,989.51
2018-05-27T05:18:56.197Z,989.50
2018-05-27T05:19:56.389Z,989.50
2018-05-27T05:20:56.586Z,989.45
2018-05-27T05:21:56.802Z,989.52
2018-05-27T05:22:56.989Z,989.56
2018-05-27T05:23:57.188Z,989.64
2018-05-27T05:26:29.057Z,989.66
2018-05-27T05:27:29.247Z,989.72
2018-05-27T05:28:29.486Z,989.66
2018-05-27T05:29:29.690Z,989.64
2018-05-27T05:30:29.890Z,989.64
2018-05-27T05:31:30.082Z,989.62
2018-05-27T05:32:30.294Z,989.38
2018-05-27T05:33:30.504Z,989.22
2018-05-27T05:34:30.710Z,989.09
2018-05-27T05:35:30.927Z,989.03
2018-05-27T05:36:31.120Z,988.98
2018-05-27T05:37:31.330Z,988.95
2018-05-27T05:38:31.537Z,988.94
2018-05-27T05:39:31.746Z,988.93
2018-05-27T05:40:31.953Z,988.93
2018-05-27T05:41:32.167Z,988.89
2018-05-27T05:42:32.363Z,988.91
2018-05-27T05:43:32.559Z,988.94
2018-05-27T05:44:32.759Z,988.92
2018-05-27T05:45:32.976Z,988.94
2018-05-27T05:46:33.189Z,988.95
2018-05-27T05:47:33.396Z,988.96
2018-05-27T05:48:33.614Z,988.95
2018-05-27T05:49:33.802Z,988.94
2018-05-27T05:50:34.006Z,988.94
2018-05-27T05:51:34.211Z,988.98
2018-05-27T05:52:34.413Z,988.95
2018-05-27T05:53:34.615Z,988.99
2018-05-27T05:54:34.821Z,989.02
2018-05-27T05:55:35.011Z,989.02
2018-05-27T05:56:35.212Z,989.02
2018-05-27T05:57:35.429Z,989.05
2018-05-27T05:58:35.647Z,989.02
2018-05-27T05:59:35.857Z,989.05
2018-05-27T06:00:36.049Z,989.05
2018-05-27T06:01:36.265Z,989.07
2018-05-27T06:02:36.472Z,989.09
2018-05-27T06:03:36.673Z,989.13
2018-05-27T06:06:08.832Z,989.95
2018-05-27T06:07:09.016Z,989.97
2018-05-27T06:08:09.223Z,989.84
2018-05-27T06:09:09.445Z,989.91
2018-05-27T06:10:09.660Z,989.39
2018-05-27T06:11:09.855Z,989.46
2018-05-27T06:12:10.058Z,989.35
2018-05-27T06:13:10.256Z,989.74
2018-05-27T06:14:10.455Z,990.02
2018-05-27T06:15:10.657Z,990.05
2018-05-27T06:16:10.859Z,990.06
2018-05-27T06:17:11.063Z,990.12
2018-05-27T06:18:11.274Z,990.19
2018-05-27T06:19:11.499Z,990.17
2018-05-27T06:20:11.694Z,990.14
2018-05-27T06:21:11.889Z,990.19
2018-05-27T06:22:12.111Z,990.32
2018-05-27T06:23:12.330Z,990.30
2018-05-27T06:24:12.546Z,990.35
2018-05-27T06:25:12.760Z,990.38
2018-05-27T06:26:12.964Z,990.36
2018-05-27T06:27:13.173Z,990.38
2018-05-27T06:28:13.371Z,990.38
2018-05-27T06:29:13.584Z,990.42
2018-05-27T06:30:13.800Z,990.38
2018-05-27T06:31:14.011Z,990.44
2018-05-27T06:32:14.216Z,990.46
2018-05-27T06:33:14.414Z,990.33
2018-05-27T06:34:14.638Z,990.29
2018-05-27T06:35:14.861Z,989.83
2018-05-27T06:36:15.077Z,989.89
2018-05-27T06:37:15.269Z,989.92
2018-05-27T06:38:15.583Z,989.77
2018-05-27T06:39:15.666Z,989.93
2018-05-27T06:40:15.886Z,990.52
2018-05-27T06:41:16.085Z,990.37
2018-05-27T06:42:16.279Z,990.24
2018-05-27T06:43:16.498Z,990.23
2018-05-27T06:44:16.718Z,990.42
2018-05-27T06:45:16.915Z,990.57
2018-05-27T06:46:17.131Z,990.55
2018-05-27T06:47:17.329Z,990.53
2018-05-27T06:48:17.559Z,990.49
2018-05-27T06:49:17.761Z,990.30
2018-05-27T06:50:17.970Z,990.33
2018-05-27T06:51:18.215Z,990.48
2018-05-27T06:52:18.393Z,990.18
2018-05-27T06:53:18.615Z,990.41
2018-05-27T06:54:18.850Z,990.43
2018-05-27T06:55:19.051Z,990.42
2018-05-27T06:56:19.253Z,990.29
2018-05-27T06:57:19.461Z,990.36
2018-05-27T06:59:51.676Z,990.31
2018-05-27T07:00:51.864Z,990.26
2018-05-27T07:01:52.063Z,990.24
2018-05-27T07:02:52.293Z,990.25
2018-05-27T07:03:52.504Z,990.21
2018-05-27T07:04:52.834Z,990.19
2018-05-27T07:05:52.926Z,990.08
2018-05-27T07:06:53.119Z,990.08
2018-05-27T07:07:53.350Z,990.08
2018-05-27T07:08:53.552Z,990.02
2018-05-27T07:09:53.773Z,990.08
2018-05-27T07:10:53.991Z,989.94
2018-05-27T07:11:54.187Z,990.08
2018-05-27T07:12:54.391Z,990.12
2018-05-27T07:13:54.609Z,990.15
2018-05-27T07:14:54.905Z,990.17
2018-05-27T07:15:54.973Z,990.15
2018-05-27T07:16:55.203Z,990.07
2018-05-27T07:17:55.428Z,990.10
2018-05-27T07:18:55.634Z,990.06
2018-05-27T07:19:55.849Z,990.14
2018-05-27T07:20:56.048Z,990.04
2018-05-27T07:21:56.244Z,990.05
2018-05-27T07:22:56.444Z,990.09
2018-05-27T07:23:56.645Z,990.05
2018-05-27T07:24:56.864Z,990.05
2018-05-27T07:25:57.193Z,990.04
2018-05-27T07:26:57.312Z,990.04
2018-05-27T07:27:57.508Z,990.05
2018-05-27T07:28:57.721Z,990.05
2018-05-27T07:29:57.915Z,989.97
2018-05-27T07:30:58.137Z,990.01
2018-05-27T07:31:58.355Z,989.97
2018-05-27T07:32:58.601Z,989.94
2018-05-27T07:33:58.825Z,989.99
2018-05-27T07:34:59.047Z,990.08
2018-05-27T07:35:59.249Z,990.03
2018-05-27T07:36:59.447Z,989.91
2018-05-27T07:37:59.667Z,989.96
2018-05-27T07:38:59.919Z,989.90
2018-05-27T07:40:00.130Z,989.86
2018-05-27T07:41:00.357Z,989.89
2018-05-27T07:42:00.556Z,989.77
2018-05-27T07:43:00.772Z,989.70
2018-05-27T07:44:00.973Z,989.55
2018-05-27T07:45:01.201Z,989.52
2018-05-27T07:46:01.403Z,989.56
2018-05-27T07:47:01.628Z,989.59
2018-05-27T07:48:01.832Z,989.49
2018-05-27T07:49:02.068Z,989.47
2018-05-27T07:50:02.279Z,989.53
2018-05-27T07:51:02.468Z,989.60
2018-05-27T07:53:34.626Z,989.50
2018-05-27T07:54:34.829Z,989.47
2018-05-27T07:55:35.153Z,989.38
2018-05-27T07:56:35.239Z,989.30
2018-05-27T07:57:35.445Z,989.32
2018-05-27T07:58:35.668Z,989.28
2018-05-27T07:59:35.905Z,989.23
2018-05-27T08:00:36.103Z,989.22
2018-05-27T08:03:11.638Z,989.16
2018-05-27T08:04:08.437Z,989.15
2018-05-27T08:05:08.637Z,989.07
2018-05-27T08:06:08.858Z,989.09
2018-05-27T08:07:09.090Z,989.10
2018-05-27T08:08:09.291Z,989.07
2018-05-27T08:09:09.496Z,989.07
2018-05-27T08:10:09.718Z,989.04
2018-05-27T08:11:09.906Z,989.01
2018-05-27T08:12:10.099Z,988.96
2018-05-27T08:13:10.291Z,988.96
2018-05-27T08:14:10.507Z,988.95
2018-05-27T08:15:10.717Z,988.97
2018-05-27T08:16:10.924Z,988.96
2018-05-27T08:17:11.150Z,988.94
2018-05-27T08:18:11.354Z,988.95
2018-05-27T08:19:11.555Z,988.98
2018-05-27T08:20:11.765Z,988.95
2018-05-27T08:21:11.980Z,988.95
2018-05-27T08:22:12.182Z,988.93
2018-05-27T08:23:12.374Z,988.95
2018-05-27T08:24:12.604Z,988.97
2018-05-27T08:25:12.819Z,988.98
2018-05-27T08:26:13.032Z,988.94
2018-05-27T08:27:13.233Z,988.93
2018-05-27T08:28:13.447Z,988.97
2018-05-27T08:29:13.656Z,988.99
2018-05-27T08:30:13.864Z,988.99
2018-05-27T08:31:14.094Z,988.98
2018-05-27T08:32:14.299Z,989.05
2018-05-27T08:33:14.508Z,989.04
2018-05-27T08:34:14.712Z,989.08
2018-05-27T08:35:14.927Z,989.03
2018-05-27T08:36:15.135Z,989.05
2018-05-27T08:37:15.330Z,989.10
2018-05-27T08:38:15.533Z,989.08
2018-05-27T08:39:15.741Z,989.18
2018-05-27T08:40:15.949Z,989.18
2018-05-27T08:41:16.158Z,989.20
2018-05-27T08:42:16.364Z,989.29
2018-05-27T08:43:16.565Z,989.31
2018-05-27T08:44:16.789Z,989.39
2018-05-27T08:45:16.986Z,989.59
2018-05-27T08:46:17.213Z,989.64
2018-05-27T08:48:49.243Z,989.49
2018-05-27T08:49:49.429Z,989.48
2018-05-27T08:50:49.649Z,989.53
2018-05-27T08:51:49.844Z,989.52
2018-05-27T08:52:50.041Z,989.57
2018-05-27T08:53:50.267Z,989.46
2018-05-27T08:54:50.455Z,989.50
2018-05-27T08:55:50.648Z,989.57
2018-05-27T08:56:50.865Z,989.71
2018-05-27T08:57:51.082Z,989.72
2018-05-27T08:58:51.293Z,989.74
2018-05-27T08:59:51.576Z,989.82
2018-05-27T09:00:51.659Z,989.64
2018-05-27T09:01:51.881Z,989.54
2018-05-27T09:02:52.078Z,989.79
2018-05-27T09:03:52.284Z,989.85
2018-05-27T09:06:24.534Z,989.58
2018-05-27T09:07:24.715Z,989.79
2018-05-27T09:08:24.932Z,989.94
2018-05-27T09:09:25.140Z,989.94
2018-05-27T09:10:25.336Z,990.01
2018-05-27T09:11:25.555Z,990.13
2018-05-27T09:12:25.784Z,990.11
2018-05-27T09:13:26.001Z,990.12
2018-05-27T09:14:26.223Z,990.10
2018-05-27T09:15:26.490Z,990.15
2018-05-27T09:16:26.641Z,990.15
2018-05-27T09:17:26.838Z,990.14
2018-05-27T09:18:27.042Z,990.15
2018-05-27T09:19:27.238Z,990.12
2018-05-27T09:20:27.435Z,990.15
2018-05-27T09:21:27.664Z,990.08
2018-05-27T09:22:27.880Z,990.10
2018-05-27T09:23:28.080Z,990.15
2018-05-27T09:24:28.286Z,990.14
2018-05-27T09:25:28.522Z,990.17
2018-05-27T09:26:28.736Z,990.30
2018-05-27T09:27:28.916Z,990.32
2018-05-27T09:28:29.150Z,990.25
2018-05-27T09:29:29.361Z,990.21
2018-05-27T09:30:29.574Z,990.11
2018-05-27T09:31:29.812Z,989.84
2018-05-27T09:32:30.037Z,989.61
2018-05-27T09:33:30.267Z,989.53
2018-05-27T09:34:30.478Z,989.57
2018-05-27T09:35:30.686Z,989.57
2018-05-27T09:36:30.946Z,989.59
2018-05-27T09:37:31.148Z,989.55
2018-05-27T09:38:31.357Z,989.54
2018-05-27T09:39:31.559Z,989.47
2018-05-27T09:40:31.783Z,989.54
2018-05-27T09:41:32.003Z,989.41
2018-05-27T09:42:32.231Z,989.52
2018-05-27T09:43:32.431Z,989.48
2018-05-27T09:44:32.640Z,989.37
2018-05-27T09:45:32.887Z,989.41
2018-05-27T09:46:33.072Z,989.43
2018-05-27T09:47:33.283Z,989.52
2018-05-27T09:48:33.670Z,989.37
2018-05-27T09:49:33.768Z,989.40
2018-05-27T09:50:33.970Z,989.42
2018-05-27T09:51:34.211Z,989.50
2018-05-27T09:52:34.436Z,989.48
2018-05-27T09:53:35.197Z,989.49
2018-05-27T09:54:34.878Z,989.52
2018-05-27T09:55:35.078Z,989.51
2018-05-27T09:56:35.279Z,989.45
2018-05-27T09:57:35.486Z,989.44
2018-05-27T09:58:35.693Z,989.45
2018-05-27T09:59:35.917Z,989.49
2018-05-27T10:00:36.133Z,989.48
2018-05-27T10:01:36.355Z,989.37
2018-05-27T10:02:36.563Z,989.44
2018-05-27T10:03:36.774Z,989.45
2018-05-27T10:04:37.010Z,989.40
2018-05-27T10:05:37.228Z,989.34
2018-05-27T10:06:37.434Z,989.34
2018-05-27T10:07:37.651Z,989.29
2018-05-27T10:08:37.866Z,989.30
2018-05-27T10:11:09.723Z,989.34
2018-05-27T10:12:09.911Z,989.25
2018-05-27T10:13:10.119Z,989.27
2018-05-27T10:14:10.319Z,989.35
2018-05-27T10:15:10.533Z,989.39
2018-05-27T10:16:10.745Z,989.34
2018-05-27T10:17:10.964Z,989.31
2018-05-27T10:18:11.173Z,989.29
2018-05-27T10:19:11.362Z,989.31
2018-05-27T10:20:11.624Z,989.32
2018-05-27T10:21:11.835Z,989.27
2018-05-27T10:22:12.044Z,989.26
2018-05-27T10:23:12.242Z,989.24
2018-05-27T10:24:12.484Z,989.20
2018-05-27T10:25:12.705Z,989.23
2018-05-27T10:26:12.902Z,989.16
2018-05-27T10:27:13.105Z,989.17
2018-05-27T10:28:13.374Z,989.15
2018-05-27T10:29:13.470Z,989.15
2018-05-27T10:30:13.699Z,989.13
2018-05-27T10:31:13.896Z,989.10
2018-05-27T10:32:14.114Z,989.09
2018-05-27T10:33:14.345Z,989.05
2018-05-27T10:34:14.584Z,988.97
2018-05-27T10:35:14.783Z,988.94
2018-05-27T10:36:15.000Z,988.91
2018-05-27T10:37:15.236Z,988.92
2018-05-27T10:38:15.433Z,988.84
2018-05-27T10:39:15.770Z,988.84
2018-05-27T10:40:15.795Z,988.87
2018-05-27T10:41:16.014Z,988.82
2018-05-27T10:42:16.204Z,988.82
2018-05-27T10:43:16.429Z,988.83
2018-05-27T10:44:16.652Z,988.78
2018-05-27T10:45:16.851Z,988.79
2018-05-27T10:46:17.096Z,988.78
2018-05-27T10:47:17.300Z,988.69
2018-05-27T10:48:17.520Z,988.69
2018-05-27T10:49:17.735Z,988.70
2018-05-27T10:50:17.958Z,988.73
2018-05-27T10:51:18.156Z,988.70
2018-05-27T10:52:18.374Z,988.66
2018-05-27T10:53:18.577Z,988.64
2018-05-27T10:54:18.806Z,988.65
2018-05-27T10:55:19.016Z,988.60
2018-05-27T10:56:19.215Z,988.58
2018-05-27T10:57:19.425Z,988.59
2018-05-27T10:58:19.697Z,988.57
2018-05-27T10:59:19.770Z,988.52
2018-05-27T11:00:19.982Z,988.48
2018-05-27T11:01:20.193Z,988.47
2018-05-27T11:02:20.407Z,988.41
2018-05-27T11:03:20.604Z,988.42
2018-05-27T11:04:20.825Z,988.41
2018-05-27T11:05:21.025Z,988.41
2018-05-27T11:06:21.244Z,988.33
2018-05-27T11:07:21.476Z,988.30
2018-05-27T11:08:21.704Z,988.29
2018-05-27T11:09:21.905Z,988.30
2018-05-27T11:10:22.112Z,988.29
2018-05-27T11:11:22.323Z,988.28
2018-05-27T11:12:22.543Z,988.25
2018-05-27T11:13:22.742Z,988.21
2018-05-27T11:14:22.966Z,988.21
2018-05-27T11:15:23.164Z,988.19
2018-05-27T11:16:23.388Z,988.18
2018-05-27T11:17:23.595Z,988.23
2018-05-27T11:18:23.820Z,988.19
2018-05-27T11:19:24.015Z,988.18
2018-05-27T11:20:24.249Z,988.20
2018-05-27T11:21:24.477Z,988.15
2018-05-27T11:22:24.688Z,988.22
2018-05-27T11:23:24.901Z,988.20
2018-05-27T11:24:25.204Z,988.17
2018-05-27T11:25:25.299Z,988.16
2018-05-27T11:26:25.569Z,988.14
2018-05-27T11:27:25.740Z,988.12
2018-05-27T11:28:25.972Z,988.13
2018-05-27T11:29:26.200Z,988.10
2018-05-27T11:30:26.434Z,988.11
2018-05-27T11:31:26.635Z,988.12
2018-05-27T11:32:26.964Z,988.08
2018-05-27T11:33:27.039Z,988.06
2018-05-27T11:34:27.253Z,988.07
2018-05-27T11:35:27.470Z,988.05
2018-05-27T11:36:27.680Z,988.00
2018-05-27T11:37:27.894Z,987.97
2018-05-27T11:38:28.121Z,987.97
2018-05-27T11:41:00.306Z,987.95
2018-05-27T11:42:00.488Z,987.94
2018-05-27T11:43:00.735Z,987.89
2018-05-27T11:44:00.911Z,987.87
2018-05-27T11:45:01.127Z,987.84
2018-05-27T11:46:01.407Z,987.85
2018-05-27T11:47:01.480Z,987.86
2018-05-27T11:48:01.685Z,987.83
2018-05-27T11:49:01.908Z,987.80
2018-05-27T11:50:02.105Z,987.83
2018-05-27T11:51:02.300Z,987.80
2018-05-27T11:52:02.533Z,987.78
2018-05-27T11:53:02.800Z,987.77
2018-05-27T11:54:02.879Z,987.78
2018-05-27T11:55:03.071Z,987.81
2018-05-27T11:56:03.261Z,987.80
2018-05-27T11:57:03.604Z,987.82
2018-05-27T11:58:03.692Z,987.79
2018-05-27T11:59:03.911Z,987.82
2018-05-27T12:00:04.128Z,987.86
2018-05-27T12:01:04.346Z,987.85
2018-05-27T12:02:04.605Z,987.81
2018-05-27T12:03:04.796Z,987.83
2018-05-27T12:04:05.015Z,987.78
2018-05-27T12:05:05.360Z,987.72
2018-05-27T12:06:05.444Z,987.69
2018-05-27T12:07:05.658Z,987.66
2018-05-27T12:08:05.871Z,987.72
2018-05-27T12:09:06.176Z,987.73
2018-05-27T12:10:06.263Z,987.71
2018-05-27T12:11:06.471Z,987.77
2018-05-27T12:12:06.664Z,987.73
2018-05-27T12:13:06.903Z,987.75
2018-05-27T12:14:07.120Z,987.73
2018-05-27T12:15:07.326Z,987.66
2018-05-27T12:16:07.664Z,987.71
2018-05-27T12:17:07.770Z,987.71
2018-05-27T12:18:08.000Z,987.63
2018-05-27T12:19:08.203Z,987.63
2018-05-27T12:20:08.410Z,987.68
2018-05-27T12:21:08.622Z,987.71
2018-05-27T12:22:08.814Z,987.58
2018-05-27T12:23:09.044Z,987.64
2018-05-27T12:24:09.301Z,987.63
2018-05-27T12:25:09.513Z,987.63
2018-05-27T12:26:09.714Z,987.67
2018-05-27T12:27:09.934Z,987.64
2018-05-27T12:28:10.174Z,987.64
2018-05-27T12:29:10.334Z,987.66
2018-05-27T12:30:10.537Z,987.65
2018-05-27T12:31:10.724Z,987.63
2018-05-27T12:32:10.922Z,987.64
2018-05-27T12:33:11.145Z,987.58
2018-05-27T12:34:11.363Z,987.59
2018-05-27T12:35:11.672Z,987.56
2018-05-27T12:36:11.771Z,987.50
2018-05-27T12:37:11.967Z,987.51
2018-05-27T12:38:12.221Z,987.55
2018-05-27T12:39:12.415Z,987.50
2018-05-27T12:40:12.608Z,987.49
2018-05-27T12:41:12.795Z,987.46
2018-05-27T12:42:13.045Z,987.43
2018-05-27T12:43:13.264Z,987.43
2018-05-27T12:44:13.473Z,987.42
2018-05-27T12:45:13.670Z,987.39
2018-05-27T12:46:13.883Z,987.36
2018-05-27T12:48:46.205Z,987.37
2018-05-27T12:49:46.385Z,987.36
2018-05-27T12:50:46.626Z,987.35
2018-05-27T12:51:46.844Z,987.40
2018-05-27T12:52:47.064Z,987.36
2018-05-27T12:53:47.275Z,987.39
2018-05-27T12:54:47.509Z,987.35
2018-05-27T12:55:47.711Z,987.32
2018-05-27T12:56:47.935Z,987.32
2018-05-27T12:57:48.159Z,987.33
2018-05-27T12:58:48.394Z,987.31
2018-05-27T12:59:48.607Z,987.29
2018-05-27T13:00:48.813Z,987.32
2018-05-27T13:01:49.038Z,987.31